sensor_id;sensor_type;location;lat;lon;timestamp;pressure;altitude;pressure_sealevel;temperature;humidity
19594;BME280;9944;48.240;16.478;2023-02-11T00:01:46;101759.44;;;0.16;56.14
19594;BME280;9944;48.240;16.478;2023-02-11T00:05:56;101768.09;;;0.16;56.35
19594;BME280;9944;48.240;16.478;2023-02-11T00:10:02;101759.19;;;0.13;56.38
19594;BME280;9944;48.240;16.478;2023-02-11T00:14:12;101754.59;;;0.09;56.28
19594;BME280;9944;48.240;16.478;2023-02-11T00:18:29;101757.09;;;0.07;56.29
19594;BME280;9944;48.240;16.478;2023-02-11T00:22:32;101757.09;;;0.07;55.69
19594;BME280;9944;48.240;16.478;2023-02-11T00:26:37;101757.09;;;0.07;56.23
19594;BME280;9944;48.240;16.478;2023-02-11T00:30:40;101758.44;;;0.02;56.10
19594;BME280;9944;48.240;16.478;2023-02-11T00:34:44;101768.63;;;-0.01;55.74
19594;BME280;9944;48.240;16.478;2023-02-11T00:38:48;101772.81;;;-0.03;56.08
19594;BME280;9944;48.240;16.478;2023-02-11T00:42:53;101765.69;;;-0.06;56.21
19594;BME280;9944;48.240;16.478;2023-02-11T00:46:58;101761.19;;;-0.08;56.38
19594;BME280;9944;48.240;16.478;2023-02-11T00:51:02;101755.88;;;-0.10;56.57
19594;BME280;9944;48.240;16.478;2023-02-11T00:55:06;101759.38;;;-0.09;56.55
19594;BME280;9944;48.240;16.478;2023-02-11T00:59:10;101753.19;;;-0.12;56.53
19594;BME280;9944;48.240;16.478;2023-02-11T01:03:13;101755.66;;;-0.13;56.47
19594;BME280;9944;48.240;16.478;2023-02-11T01:07:16;101756.47;;;-0.14;56.49
19594;BME280;9944;48.240;16.478;2023-02-11T01:11:20;101741.56;;;-0.17;56.66
19594;BME280;9944;48.240;16.478;2023-02-11T01:15:25;101738.84;;;-0.18;56.75
19594;BME280;9944;48.240;16.478;2023-02-11T01:19:29;101723.16;;;-0.20;56.86
19594;BME280;9944;48.240;16.478;2023-02-11T01:23:32;101737.75;;;-0.22;56.79
19594;BME280;9944;48.240;16.478;2023-02-11T01:27:36;101733.91;;;-0.27;56.74
19594;BME280;9944;48.240;16.478;2023-02-11T01:31:41;101738.69;;;-0.33;56.64
19594;BME280;9944;48.240;16.478;2023-02-11T01:35:44;101737.44;;;-0.38;56.90
19594;BME280;9944;48.240;16.478;2023-02-11T01:39:48;101725.84;;;-0.43;56.67
19594;BME280;9944;48.240;16.478;2023-02-11T01:43:51;101726.97;;;-0.52;56.96
19594;BME280;9944;48.240;16.478;2023-02-11T01:47:57;101722.91;;;-0.60;56.95
19594;BME280;9944;48.240;16.478;2023-02-11T01:52:06;101715.59;;;-0.65;57.32
19594;BME280;9944;48.240;16.478;2023-02-11T01:56:12;101713.34;;;-0.73;57.60
19594;BME280;9944;48.240;16.478;2023-02-11T02:00:35;101709.41;;;-0.79;57.69
19594;BME280;9944;48.240;16.478;2023-02-11T02:04:48;101700.38;;;-0.84;57.75
19594;BME280;9944;48.240;16.478;2023-02-11T02:08:56;101707.72;;;-0.91;57.97
19594;BME280;9944;48.240;16.478;2023-02-11T02:13:03;101709.09;;;-0.96;57.91
19594;BME280;9944;48.240;16.478;2023-02-11T02:17:06;101702.66;;;-1.01;58.05
19594;BME280;9944;48.240;16.478;2023-02-11T02:30:59;101685.03;;;-1.17;58.28
19594;BME280;9944;48.240;16.478;2023-02-11T02:35:18;101676.97;;;-1.21;58.53
19594;BME280;9944;48.240;16.478;2023-02-11T02:39:29;101668.72;;;-1.28;58.64
19594;BME280;9944;48.240;16.478;2023-02-11T02:43:37;101654.97;;;-1.27;58.90
19594;BME280;9944;48.240;16.478;2023-02-11T02:47:42;101657.47;;;-1.28;58.94
19594;BME280;9944;48.240;16.478;2023-02-11T02:51:57;101651.94;;;-1.33;59.19
19594;BME280;9944;48.240;16.478;2023-02-11T02:56:07;101652.38;;;-1.38;59.15
19594;BME280;9944;48.240;16.478;2023-02-11T03:00:22;101647.41;;;-1.47;59.29
19594;BME280;9944;48.240;16.478;2023-02-11T03:04:30;101644.25;;;-1.55;59.56
19594;BME280;9944;48.240;16.478;2023-02-11T03:08:42;101653.47;;;-1.58;59.93
19594;BME280;9944;48.240;16.478;2023-02-11T03:12:47;101644.69;;;-1.60;60.17
19594;BME280;9944;48.240;16.478;2023-02-11T03:16:53;101638.38;;;-1.64;60.23
19594;BME280;9944;48.240;16.478;2023-02-11T03:20:59;101634.78;;;-1.66;60.49
19594;BME280;9944;48.240;16.478;2023-02-11T03:25:06;101631.81;;;-1.71;60.98
19594;BME280;9944;48.240;16.478;2023-02-11T03:29:15;101619.91;;;-1.80;60.40
19594;BME280;9944;48.240;16.478;2023-02-11T03:33:23;101622.13;;;-1.85;60.64
19594;BME280;9944;48.240;16.478;2023-02-11T03:37:32;101617.41;;;-1.91;60.89
19594;BME280;9944;48.240;16.478;2023-02-11T03:41:40;101606.94;;;-1.92;60.97
19594;BME280;9944;48.240;16.478;2023-02-11T03:45:45;101601.88;;;-1.91;61.26
19594;BME280;9944;48.240;16.478;2023-02-11T03:49:50;101593.41;;;-1.88;61.35
19594;BME280;9944;48.240;16.478;2023-02-11T03:53:56;101584.06;;;-1.86;61.55
19594;BME280;9944;48.240;16.478;2023-02-11T03:58:02;101577.34;;;-1.84;61.55
19594;BME280;9944;48.240;16.478;2023-02-11T04:02:06;101579.59;;;-1.89;61.44
19594;BME280;9944;48.240;16.478;2023-02-11T04:06:09;101569.94;;;-1.91;61.79
19594;BME280;9944;48.240;16.478;2023-02-11T04:10:12;101579.34;;;-1.92;62.94
19594;BME280;9944;48.240;16.478;2023-02-11T04:14:17;101592.31;;;-1.80;62.93
19594;BME280;9944;48.240;16.478;2023-02-11T04:18:20;101584.34;;;-1.71;63.42
19594;BME280;9944;48.240;16.478;2023-02-11T04:22:23;101583.91;;;-1.54;63.46
19594;BME280;9944;48.240;16.478;2023-02-11T04:26:26;101594.50;;;-1.39;63.43
19594;BME280;9944;48.240;16.478;2023-02-11T04:30:34;101583.22;;;-1.28;63.69
19594;BME280;9944;48.240;16.478;2023-02-11T04:34:39;101579.16;;;-1.12;63.60
19594;BME280;9944;48.240;16.478;2023-02-11T04:38:42;101570.66;;;-0.98;63.67
19594;BME280;9944;48.240;16.478;2023-02-11T04:42:47;101566.94;;;-0.90;63.17
19594;BME280;9944;48.240;16.478;2023-02-11T04:47:07;101565.34;;;-0.88;63.20
19594;BME280;9944;48.240;16.478;2023-02-11T04:51:11;101572.13;;;-0.90;62.97
19594;BME280;9944;48.240;16.478;2023-02-11T04:55:14;101574.31;;;-0.96;62.76
19594;BME280;9944;48.240;16.478;2023-02-11T04:59:17;101564.47;;;-1.00;62.77
19594;BME280;9944;48.240;16.478;2023-02-11T05:03:22;101571.47;;;-0.99;62.94
19594;BME280;9944;48.240;16.478;2023-02-11T05:07:25;101559.53;;;-0.97;63.11
19594;BME280;9944;48.240;16.478;2023-02-11T05:11:28;101559.97;;;-0.91;63.29
19594;BME280;9944;48.240;16.478;2023-02-11T05:15:31;101560.41;;;-0.84;63.44
19594;BME280;9944;48.240;16.478;2023-02-11T05:19:35;101562.41;;;-0.80;63.75
19594;BME280;9944;48.240;16.478;2023-02-11T05:23:39;101575.91;;;-0.73;63.70
19594;BME280;9944;48.240;16.478;2023-02-11T05:27:44;101572.75;;;-0.69;63.56
19594;BME280;9944;48.240;16.478;2023-02-11T05:31:52;101563.19;;;-0.70;63.79
19594;BME280;9944;48.240;16.478;2023-02-11T05:35:59;101558.66;;;-0.72;63.74
19594;BME280;9944;48.240;16.478;2023-02-11T05:40:02;101561.59;;;-0.67;63.92
19594;BME280;9944;48.240;16.478;2023-02-11T05:44:06;101560.34;;;-0.61;64.15
19594;BME280;9944;48.240;16.478;2023-02-11T05:48:09;101552.19;;;-0.54;63.94
19594;BME280;9944;48.240;16.478;2023-02-11T05:52:13;101543.31;;;-0.44;63.80
19594;BME280;9944;48.240;16.478;2023-02-11T05:56:16;101536.88;;;-0.37;63.66
19594;BME280;9944;48.240;16.478;2023-02-11T06:00:19;101527.69;;;-0.32;63.71
19594;BME280;9944;48.240;16.478;2023-02-11T06:04:22;101524.72;;;-0.25;63.33
19594;BME280;9944;48.240;16.478;2023-02-11T06:08:27;101522.16;;;-0.12;63.19
19594;BME280;9944;48.240;16.478;2023-02-11T06:12:30;101515.81;;;-0.03;62.89
19594;BME280;9944;48.240;16.478;2023-02-11T06:16:33;101502.66;;;0.07;62.72
19594;BME280;9944;48.240;16.478;2023-02-11T06:20:37;101483.56;;;0.20;62.49
19594;BME280;9944;48.240;16.478;2023-02-11T06:24:42;101474.47;;;0.26;61.90
19594;BME280;9944;48.240;16.478;2023-02-11T06:29:02;101481.09;;;0.35;61.86
19594;BME280;9944;48.240;16.478;2023-02-11T06:33:05;101474.19;;;0.35;61.91
19594;BME280;9944;48.240;16.478;2023-02-11T06:37:08;101471.88;;;0.40;61.69
19594;BME280;9944;48.240;16.478;2023-02-11T06:41:14;101466.69;;;0.40;61.50
19594;BME280;9944;48.240;16.478;2023-02-11T06:45:17;101471.28;;;0.44;61.49
19594;BME280;9944;48.240;16.478;2023-02-11T06:49:21;101475.84;;;0.48;61.39
19594;BME280;9944;48.240;16.478;2023-02-11T06:53:24;101476.25;;;0.54;61.25
19594;BME280;9944;48.240;16.478;2023-02-11T06:57:29;101471.63;;;0.63;61.25
19594;BME280;9944;48.240;16.478;2023-02-11T07:01:32;101463.53;;;0.72;61.04
19594;BME280;9944;48.240;16.478;2023-02-11T07:05:35;101458.63;;;0.77;61.01
19594;BME280;9944;48.240;16.478;2023-02-11T07:09:39;101459.19;;;0.86;61.12
19594;BME280;9944;48.240;16.478;2023-02-11T07:13:44;101451.16;;;0.96;60.70
19594;BME280;9944;48.240;16.478;2023-02-11T07:17:47;101465.00;;;1.10;60.51
19594;BME280;9944;48.240;16.478;2023-02-11T07:21:50;101460.31;;;1.18;60.45
19594;BME280;9944;48.240;16.478;2023-02-11T07:25:53;101472.25;;;1.29;60.26
19594;BME280;9944;48.240;16.478;2023-02-11T07:29:58;101462.22;;;1.35;60.15
19594;BME280;9944;48.240;16.478;2023-02-11T07:34:01;101441.16;;;1.46;60.04
19594;BME280;9944;48.240;16.478;2023-02-11T07:38:04;101428.50;;;1.52;59.72
19594;BME280;9944;48.240;16.478;2023-02-11T07:42:07;101438.84;;;1.65;59.59
19594;BME280;9944;48.240;16.478;2023-02-11T07:46:14;101437.69;;;1.75;59.30
19594;BME280;9944;48.240;16.478;2023-02-11T07:50:17;101459.03;;;1.84;58.80
19594;BME280;9944;48.240;16.478;2023-02-11T07:54:20;101464.78;;;1.93;58.18
19594;BME280;9944;48.240;16.478;2023-02-11T07:58:23;101483.63;;;2.04;57.94
19594;BME280;9944;48.240;16.478;2023-02-11T08:02:28;101484.00;;;2.10;57.71
19594;BME280;9944;48.240;16.478;2023-02-11T08:06:33;101480.84;;;2.16;57.27
19594;BME280;9944;48.240;16.478;2023-02-11T08:10:36;101474.38;;;2.24;57.45
19594;BME280;9944;48.240;16.478;2023-02-11T08:14:40;101465.81;;;2.27;56.86
19594;BME280;9944;48.240;16.478;2023-02-11T08:18:44;101450.53;;;2.33;56.25
19594;BME280;9944;48.240;16.478;2023-02-11T08:22:48;101473.44;;;2.39;56.02
19594;BME280;9944;48.240;16.478;2023-02-11T08:26:51;101447.97;;;2.49;55.75
19594;BME280;9944;48.240;16.478;2023-02-11T08:30:54;101442.94;;;2.52;56.03
19594;BME280;9944;48.240;16.478;2023-02-11T08:34:58;101445.63;;;2.54;55.20
19594;BME280;9944;48.240;16.478;2023-02-11T08:39:04;101447.50;;;2.57;55.29
19594;BME280;9944;48.240;16.478;2023-02-11T08:43:20;101464.13;;;2.59;55.27
19594;BME280;9944;48.240;16.478;2023-02-11T08:47:24;101455.66;;;2.63;55.11
19594;BME280;9944;48.240;16.478;2023-02-11T08:51:29;101458.75;;;2.72;54.68
19594;BME280;9944;48.240;16.478;2023-02-11T08:55:32;101444.34;;;2.79;54.38
19594;BME280;9944;48.240;16.478;2023-02-11T08:59:35;101443.16;;;2.88;54.50
19594;BME280;9944;48.240;16.478;2023-02-11T09:03:40;101449.53;;;2.94;54.14
19594;BME280;9944;48.240;16.478;2023-02-11T09:07:45;101459.28;;;2.98;54.02
19594;BME280;9944;48.240;16.478;2023-02-11T09:11:48;101442.09;;;3.01;53.72
19594;BME280;9944;48.240;16.478;2023-02-11T09:15:51;101437.94;;;3.05;53.68
19594;BME280;9944;48.240;16.478;2023-02-11T09:19:54;101433.31;;;3.16;53.76
19594;BME280;9944;48.240;16.478;2023-02-11T09:23:59;101429.53;;;3.27;53.54
19594;BME280;9944;48.240;16.478;2023-02-11T09:28:02;101433.53;;;3.37;53.07
19594;BME280;9944;48.240;16.478;2023-02-11T09:32:06;101417.53;;;3.47;52.59
19594;BME280;9944;48.240;16.478;2023-02-11T09:36:10;101422.53;;;3.60;52.63
19594;BME280;9944;48.240;16.478;2023-02-11T09:40:15;101428.97;;;3.67;52.23
19594;BME280;9944;48.240;16.478;2023-02-11T09:44:21;101412.56;;;3.70;52.12
19594;BME280;9944;48.240;16.478;2023-02-11T09:48:24;101406.50;;;3.71;52.19
19594;BME280;9944;48.240;16.478;2023-02-11T09:52:34;101413.63;;;3.73;52.25
19594;BME280;9944;48.240;16.478;2023-02-11T09:56:39;101396.38;;;3.77;51.93
19594;BME280;9944;48.240;16.478;2023-02-11T10:00:46;101399.16;;;3.80;51.95
19594;BME280;9944;48.240;16.478;2023-02-11T10:05:06;101400.34;;;3.87;51.92
19594;BME280;9944;48.240;16.478;2023-02-11T10:09:38;101380.97;;;3.99;51.86
19594;BME280;9944;48.240;16.478;2023-02-11T10:13:55;101391.13;;;4.11;51.77
19594;BME280;9944;48.240;16.478;2023-02-11T10:18:13;101383.81;;;4.22;51.74
19594;BME280;9944;48.240;16.478;2023-02-11T10:22:22;101380.72;;;4.31;52.15
19594;BME280;9944;48.240;16.478;2023-02-11T10:26:30;101365.19;;;4.34;51.71
19594;BME280;9944;48.240;16.478;2023-02-11T10:30:37;101367.94;;;4.37;51.74
19594;BME280;9944;48.240;16.478;2023-02-11T10:34:42;101366.50;;;4.44;51.56
19594;BME280;9944;48.240;16.478;2023-02-11T10:38:45;101352.31;;;4.56;51.50
19594;BME280;9944;48.240;16.478;2023-02-11T10:42:50;101355.41;;;4.67;51.09
19594;BME280;9944;48.240;16.478;2023-02-11T10:47:01;101359.19;;;4.74;51.04
19594;BME280;9944;48.240;16.478;2023-02-11T10:51:11;101343.75;;;4.80;49.82
19594;BME280;9944;48.240;16.478;2023-02-11T10:55:17;101344.28;;;4.92;50.72
19594;BME280;9944;48.240;16.478;2023-02-11T10:59:26;101337.53;;;4.97;49.72
19594;BME280;9944;48.240;16.478;2023-02-11T11:03:35;101340.09;;;4.96;49.84
19594;BME280;9944;48.240;16.478;2023-02-11T11:07:50;101326.47;;;5.03;50.23
19594;BME280;9944;48.240;16.478;2023-02-11T11:11:55;101312.09;;;5.14;50.17
19594;BME280;9944;48.240;16.478;2023-02-11T11:16:23;101306.06;;;5.15;49.77
19594;BME280;9944;48.240;16.478;2023-02-11T11:20:29;101306.06;;;5.15;49.35
19594;BME280;9944;48.240;16.478;2023-02-11T11:24:42;101285.22;;;5.19;49.13
19594;BME280;9944;48.240;16.478;2023-02-11T11:28:53;101285.22;;;5.19;48.86
19594;BME280;9944;48.240;16.478;2023-02-11T11:32:58;101267.97;;;5.24;49.33
19594;BME280;9944;48.240;16.478;2023-02-11T11:37:12;101267.44;;;5.31;49.23
19594;BME280;9944;48.240;16.478;2023-02-11T11:41:26;101252.69;;;5.33;48.55
19594;BME280;9944;48.240;16.478;2023-02-11T11:45:31;101251.09;;;5.37;49.11
19594;BME280;9944;48.240;16.478;2023-02-11T11:49:37;101237.34;;;5.42;48.03
19594;BME280;9944;48.240;16.478;2023-02-11T11:53:49;101234.00;;;5.46;48.71
19594;BME280;9944;48.240;16.478;2023-02-11T11:57:53;101230.84;;;5.55;48.41
19594;BME280;9944;48.240;16.478;2023-02-11T12:06:42;101210.34;;;5.66;47.78
19594;BME280;9944;48.240;16.478;2023-02-11T12:11:01;101212.38;;;5.73;46.87
19594;BME280;9944;48.240;16.478;2023-02-11T12:15:21;101196.78;;;5.76;46.98
19594;BME280;9944;48.240;16.478;2023-02-11T12:24:19;101197.31;;;5.91;47.77
19594;BME280;9944;48.240;16.478;2023-02-11T12:28:36;101196.50;;;5.92;47.55
19594;BME280;9944;48.240;16.478;2023-02-11T12:32:46;101183.22;;;5.88;47.89
19594;BME280;9944;48.240;16.478;2023-02-11T12:37:01;101187.44;;;5.84;47.99
19594;BME280;9944;48.240;16.478;2023-02-11T12:41:18;101181.13;;;5.79;47.61
19594;BME280;9944;48.240;16.478;2023-02-11T12:46:13;101165.41;;;5.79;48.17
19594;BME280;9944;48.240;16.478;2023-02-11T12:50:26;101155.06;;;5.82;47.90
19594;BME280;9944;48.240;16.478;2023-02-11T12:54:34;101176.03;;;5.82;47.99
19594;BME280;9944;48.240;16.478;2023-02-11T12:58:41;101182.13;;;5.81;47.40
19594;BME280;9944;48.240;16.478;2023-02-11T13:02:51;101184.63;;;5.78;46.43
19594;BME280;9944;48.240;16.478;2023-02-11T13:06:59;101184.63;;;5.78;46.94
19594;BME280;9944;48.240;16.478;2023-02-11T13:11:09;101200.41;;;5.80;46.71
19594;BME280;9944;48.240;16.478;2023-02-11T13:15:17;101207.47;;;5.82;46.79
19594;BME280;9944;48.240;16.478;2023-02-11T13:19:26;101204.03;;;5.83;46.42
19594;BME280;9944;48.240;16.478;2023-02-11T13:23:37;101207.59;;;5.85;46.71
19594;BME280;9944;48.240;16.478;2023-02-11T13:27:50;101198.94;;;5.88;46.65
19594;BME280;9944;48.240;16.478;2023-02-11T13:32:06;101213.84;;;5.89;46.50
19594;BME280;9944;48.240;16.478;2023-02-11T13:36:17;101208.59;;;5.89;46.07
19594;BME280;9944;48.240;16.478;2023-02-11T13:40:24;101205.84;;;5.86;46.47
19594;BME280;9944;48.240;16.478;2023-02-11T13:44:28;101209.47;;;5.89;46.94
19594;BME280;9944;48.240;16.478;2023-02-11T13:48:35;101195.44;;;5.87;46.90
19594;BME280;9944;48.240;16.478;2023-02-11T13:52:40;101195.31;;;5.84;46.84
19594;BME280;9944;48.240;16.478;2023-02-11T13:56:43;101190.69;;;5.77;47.13
19594;BME280;9944;48.240;16.478;2023-02-11T14:00:48;101186.16;;;5.73;47.46
19594;BME280;9944;48.240;16.478;2023-02-11T14:05:18;101195.56;;;5.68;47.75
19594;BME280;9944;48.240;16.478;2023-02-11T14:09:41;101203.09;;;5.59;47.98
19594;BME280;9944;48.240;16.478;2023-02-11T14:14:15;101195.91;;;5.54;48.32
19594;BME280;9944;48.240;16.478;2023-02-11T14:18:38;101187.94;;;5.51;48.56
19594;BME280;9944;48.240;16.478;2023-02-11T14:22:59;101181.59;;;5.45;48.62
19594;BME280;9944;48.240;16.478;2023-02-11T14:27:06;101173.59;;;5.42;48.61
19594;BME280;9944;48.240;16.478;2023-02-11T14:31:17;101170.78;;;5.37;49.09
19594;BME280;9944;48.240;16.478;2023-02-11T14:35:29;101171.66;;;5.36;49.08
19594;BME280;9944;48.240;16.478;2023-02-11T14:39:45;101175.91;;;5.34;49.17
19594;BME280;9944;48.240;16.478;2023-02-11T14:43:57;101177.69;;;5.35;49.49
19594;BME280;9944;48.240;16.478;2023-02-11T14:48:04;101175.91;;;5.34;49.39
19594;BME280;9944;48.240;16.478;2023-02-11T14:52:16;101160.19;;;5.34;49.61
19594;BME280;9944;48.240;16.478;2023-02-11T14:56:21;101160.84;;;5.28;49.60
19594;BME280;9944;48.240;16.478;2023-02-11T15:00:28;101159.84;;;5.25;49.89
19594;BME280;9944;48.240;16.478;2023-02-11T15:04:33;101156.13;;;5.20;50.17
19594;BME280;9944;48.240;16.478;2023-02-11T15:08:41;101166.47;;;5.16;50.08
19594;BME280;9944;48.240;16.478;2023-02-11T15:12:45;101158.41;;;5.10;50.54
19594;BME280;9944;48.240;16.478;2023-02-11T15:16:57;101163.63;;;5.10;50.71
19594;BME280;9944;48.240;16.478;2023-02-11T15:21:01;101161.00;;;5.10;50.71
19594;BME280;9944;48.240;16.478;2023-02-11T15:25:09;101169.75;;;5.11;51.08
19594;BME280;9944;48.240;16.478;2023-02-11T15:29:15;101160.09;;;5.10;51.08
19594;BME280;9944;48.240;16.478;2023-02-11T15:33:22;101160.06;;;5.08;51.16
19594;BME280;9944;48.240;16.478;2023-02-11T15:37:27;101166.13;;;5.07;51.11
19594;BME280;9944;48.240;16.478;2023-02-11T15:41:36;101168.66;;;5.06;51.70
19594;BME280;9944;48.240;16.478;2023-02-11T15:45:42;101169.44;;;5.03;51.87
19594;BME280;9944;48.240;16.478;2023-02-11T15:49:48;101157.19;;;5.02;51.77
19594;BME280;9944;48.240;16.478;2023-02-11T15:53:53;101157.06;;;4.99;51.62
19594;BME280;9944;48.240;16.478;2023-02-11T15:58:00;101151.69;;;4.96;51.98
19594;BME280;9944;48.240;16.478;2023-02-11T16:02:08;101143.00;;;4.97;52.20
19594;BME280;9944;48.240;16.478;2023-02-11T16:06:18;101136.69;;;4.92;52.30
19594;BME280;9944;48.240;16.478;2023-02-11T16:10:24;101160.91;;;4.86;52.67
19594;BME280;9944;48.240;16.478;2023-02-11T16:14:31;101154.50;;;4.79;53.03
19594;BME280;9944;48.240;16.478;2023-02-11T16:18:36;101160.56;;;4.78;52.93
19594;BME280;9944;48.240;16.478;2023-02-11T16:22:44;101173.41;;;4.72;53.39
19594;BME280;9944;48.240;16.478;2023-02-11T16:26:50;101177.69;;;4.70;53.59
19594;BME280;9944;48.240;16.478;2023-02-11T16:30:55;101175.88;;;4.69;53.71
19594;BME280;9944;48.240;16.478;2023-02-11T16:35:06;101183.72;;;4.69;53.60
19594;BME280;9944;48.240;16.478;2023-02-11T16:39:14;101184.53;;;4.68;53.81
19594;BME280;9944;48.240;16.478;2023-02-11T16:43:18;101180.00;;;4.64;53.94
19594;BME280;9944;48.240;16.478;2023-02-11T16:47:23;101178.25;;;4.63;54.27
19594;BME280;9944;48.240;16.478;2023-02-11T16:51:27;101180.88;;;4.63;54.27
19594;BME280;9944;48.240;16.478;2023-02-11T16:55:32;101178.09;;;4.60;54.34
19594;BME280;9944;48.240;16.478;2023-02-11T16:59:35;101183.28;;;4.58;54.65
19594;BME280;9944;48.240;16.478;2023-02-11T17:03:39;101194.41;;;4.54;54.70
19594;BME280;9944;48.240;16.478;2023-02-11T17:07:44;101195.25;;;4.53;54.92
19594;BME280;9944;48.240;16.478;2023-02-11T17:11:51;101205.72;;;4.53;55.00
19594;BME280;9944;48.240;16.478;2023-02-11T17:15:54;101207.44;;;4.53;55.18
19594;BME280;9944;48.240;16.478;2023-02-11T17:19:57;101223.00;;;4.50;55.51
19594;BME280;9944;48.240;16.478;2023-02-11T17:24:00;101229.88;;;4.48;55.53
19594;BME280;9944;48.240;16.478;2023-02-11T17:28:06;101220.31;;;4.48;55.61
19594;BME280;9944;48.240;16.478;2023-02-11T17:32:10;101234.13;;;4.46;56.01
19594;BME280;9944;48.240;16.478;2023-02-11T17:36:13;101226.28;;;4.46;55.96
19594;BME280;9944;48.240;16.478;2023-02-11T17:40:16;101227.13;;;4.45;56.36
19594;BME280;9944;48.240;16.478;2023-02-11T17:44:21;101228.06;;;4.47;56.25
19594;BME280;9944;48.240;16.478;2023-02-11T17:48:24;101221.03;;;4.46;56.38
19594;BME280;9944;48.240;16.478;2023-02-11T17:52:27;101214.13;;;4.46;56.36
19594;BME280;9944;48.240;16.478;2023-02-11T17:56:32;101221.03;;;4.46;56.57
19594;BME280;9944;48.240;16.478;2023-02-11T18:00:37;101208.97;;;4.48;56.63
19594;BME280;9944;48.240;16.478;2023-02-11T18:04:40;101209.91;;;4.50;56.60
19594;BME280;9944;48.240;16.478;2023-02-11T18:08:43;101205.78;;;4.55;56.53
19594;BME280;9944;48.240;16.478;2023-02-11T18:12:46;101207.56;;;4.56;56.74
19594;BME280;9944;48.240;16.478;2023-02-11T18:16:51;101204.94;;;4.56;56.62
19594;BME280;9944;48.240;16.478;2023-02-11T18:20:55;101207.56;;;4.56;56.46
19594;BME280;9944;48.240;16.478;2023-02-11T18:24:59;101212.03;;;4.58;56.47
19594;BME280;9944;48.240;16.478;2023-02-11T18:29:03;101227.72;;;4.58;56.55
19594;BME280;9944;48.240;16.478;2023-02-11T18:33:09;101233.84;;;4.59;56.54
19594;BME280;9944;48.240;16.478;2023-02-11T18:37:14;101232.19;;;4.61;56.82
19594;BME280;9944;48.240;16.478;2023-02-11T18:41:17;101227.88;;;4.62;56.99
19594;BME280;9944;48.240;16.478;2023-02-11T18:45:21;101232.31;;;4.64;56.95
19594;BME280;9944;48.240;16.478;2023-02-11T18:49:26;101236.66;;;4.64;57.01
19594;BME280;9944;48.240;16.478;2023-02-11T18:53:29;101235.06;;;4.67;56.92
19594;BME280;9944;48.240;16.478;2023-02-11T18:57:32;101241.28;;;4.69;57.26
19594;BME280;9944;48.240;16.478;2023-02-11T19:01:35;101245.63;;;4.69;57.25
19594;BME280;9944;48.240;16.478;2023-02-11T19:05:43;101262.34;;;4.72;57.34
19594;BME280;9944;48.240;16.478;2023-02-11T19:09:46;101261.44;;;4.72;57.29
19594;BME280;9944;48.240;16.478;2023-02-11T19:13:49;101262.34;;;4.72;57.50
19594;BME280;9944;48.240;16.478;2023-02-11T19:17:53;101259.78;;;4.74;57.43
19594;BME280;9944;48.240;16.478;2023-02-11T19:21:58;101261.44;;;4.72;57.42
19594;BME280;9944;48.240;16.478;2023-02-11T19:26:02;101262.34;;;4.72;57.41
19594;BME280;9944;48.240;16.478;2023-02-11T19:30:08;101263.16;;;4.71;57.77
19594;BME280;9944;48.240;16.478;2023-02-11T19:34:13;101261.56;;;4.75;57.59
19594;BME280;9944;48.240;16.478;2023-02-11T19:38:18;101258.00;;;4.73;57.71
19594;BME280;9944;48.240;16.478;2023-02-11T19:42:21;101263.22;;;4.73;57.84
19594;BME280;9944;48.240;16.478;2023-02-11T19:46:30;101267.56;;;4.72;57.80
19594;BME280;9944;48.240;16.478;2023-02-11T19:50:33;101267.56;;;4.72;58.02
19594;BME280;9944;48.240;16.478;2023-02-11T19:54:38;101266.69;;;4.72;57.86
19594;BME280;9944;48.240;16.478;2023-02-11T19:58:42;101275.41;;;4.72;57.88
19594;BME280;9944;48.240;16.478;2023-02-11T20:02:45;101291.78;;;4.68;57.80
19594;BME280;9944;48.240;16.478;2023-02-11T20:06:48;101276.94;;;4.67;58.10
19594;BME280;9944;48.240;16.478;2023-02-11T20:10:53;101277.66;;;4.65;58.09
19594;BME280;9944;48.240;16.478;2023-02-11T20:14:56;101281.94;;;4.63;58.32
19594;BME280;9944;48.240;16.478;2023-02-11T20:18:59;101270.59;;;4.62;58.32
19594;BME280;9944;48.240;16.478;2023-02-11T20:23:03;101273.22;;;4.62;58.66
19594;BME280;9944;48.240;16.478;2023-02-11T20:27:07;101274.03;;;4.61;58.53
19594;BME280;9944;48.240;16.478;2023-02-11T20:31:12;101274.94;;;4.62;58.83
19594;BME280;9944;48.240;16.478;2023-02-11T20:35:16;101269.66;;;4.60;58.82
19594;BME280;9944;48.240;16.478;2023-02-11T20:39:19;101277.50;;;4.60;59.15
19594;BME280;9944;48.240;16.478;2023-02-11T20:43:24;101273.00;;;4.57;59.14
19594;BME280;9944;48.240;16.478;2023-02-11T20:47:27;101274.88;;;4.60;59.15
19594;BME280;9944;48.240;16.478;2023-02-11T20:51:32;101265.22;;;4.59;59.22
19594;BME280;9944;48.240;16.478;2023-02-11T20:55:38;101251.47;;;4.63;59.57
19594;BME280;9944;48.240;16.478;2023-02-11T20:59:42;101248.00;;;4.64;59.58
19594;BME280;9944;48.240;16.478;2023-02-11T21:03:49;101241.03;;;4.63;59.79
19594;BME280;9944;48.240;16.478;2023-02-11T21:07:53;101242.66;;;4.61;60.23
19594;BME280;9944;48.240;16.478;2023-02-11T21:11:56;101241.69;;;4.59;60.45
19594;BME280;9944;48.240;16.478;2023-02-11T21:16:00;101231.22;;;4.59;60.71
19594;BME280;9944;48.240;16.478;2023-02-11T21:20:05;101229.47;;;4.58;61.16
19594;BME280;9944;48.240;16.478;2023-02-11T21:24:09;101232.06;;;4.58;61.02
19594;BME280;9944;48.240;16.478;2023-02-11T21:28:12;101235.50;;;4.57;61.11
19594;BME280;9944;48.240;16.478;2023-02-11T21:32:17;101241.53;;;4.56;61.29
19594;BME280;9944;48.240;16.478;2023-02-11T21:36:21;101251.94;;;4.54;61.43
19594;BME280;9944;48.240;16.478;2023-02-11T21:40:24;101250.38;;;4.58;61.48
19594;BME280;9944;48.240;16.478;2023-02-11T21:44:29;101246.09;;;4.60;61.63
19594;BME280;9944;48.240;16.478;2023-02-11T21:48:35;101250.50;;;4.61;61.88
19594;BME280;9944;48.240;16.478;2023-02-11T21:52:38;101258.41;;;4.63;62.15
19594;BME280;9944;48.240;16.478;2023-02-11T21:56:41;101261.03;;;4.63;62.36
19594;BME280;9944;48.240;16.478;2023-02-11T22:00:44;101259.38;;;4.65;62.46